Time;durP1;ratioP1;P1;durP2;ratioP2;P2;SDS_P1;SDS_P2;PMS_P1;PMS_P2;Temp;Humidity;BMP_temperature;BMP_pressure;BME280_temperature;BME280_humidity;BME280_pressure;Samples;Min_cycle;Max_cycle;Signal;HPM_P1;HPM_P2
2021/04/16 00:03:27;;;;;;;16.73;15.80;;;24.10;90.20;;;;;;6103618;23;20448;-43
2021/04/16 00:06:31;;;;;;;16.80;15.80;;;24.10;90.10;;;;;;6104234;23;20444;-43
2021/04/16 00:08:58;;;;;;;16.33;15.33;;;24.10;90.20;;;;;;6102831;23;20441;-43
2021/04/16 00:13:36;;;;;;;16.50;15.70;;;24.10;90.20;;;;;;6102121;23;20460;-44
2021/04/16 00:16:40;;;;;;;16.90;15.80;;;24.10;90.10;;;;;;6104910;23;20871;-43
2021/04/16 00:19:45;;;;;;;16.47;15.50;;;24.10;90.10;;;;;;6104690;23;20941;-43
2021/04/16 00:24:46;;;;;;;16.83;15.93;;;24.10;90.10;;;;;;6102736;23;20440;-43
2021/04/16 00:27:50;;;;;;;16.60;15.60;;;24.10;90.10;;;;;;6103027;23;20535;-44
2021/04/16 00:30:58;;;;;;;17.00;16.10;;;24.10;90.10;;;;;;6103590;23;20465;-42
2021/04/16 00:33:26;;;;;;;15.97;15.07;;;24.20;90.10;;;;;;6077333;23;20418;-43
2021/04/16 00:36:33;;;;;;;16.43;15.63;;;24.10;90.00;;;;;;6102117;23;20452;-44
2021/04/16 00:39:40;;;;;;;16.20;15.40;;;24.20;90.10;;;;;;6104561;23;20433;-44
2021/04/16 00:42:52;;;;;;;16.10;15.20;;;24.20;90.00;;;;;;6103391;23;20535;-44
2021/04/16 00:45:18;;;;;;;16.30;15.30;;;24.20;90.10;;;;;;6101796;23;20531;-43
2021/04/16 00:48:29;;;;;;;16.90;16.00;;;24.10;90.00;;;;;;6105093;23;20444;-42
2021/04/16 00:53:09;;;;;;;15.70;14.90;;;24.10;90.00;;;;;;6102408;23;20451;-44
2021/04/16 00:57:46;;;;;;;15.87;15.07;;;24.20;90.30;;;;;;6102896;23;20441;-44
2021/04/16 01:02:22;;;;;;;17.17;16.17;;;24.20;90.00;;;;;;6104291;23;20441;-44
2021/04/16 01:05:28;;;;;;;16.47;15.37;;;24.20;90.00;;;;;;6102854;23;20437;-45
2021/04/16 01:08:36;;;;;;;15.13;14.47;;;24.20;90.00;;;;;;6102325;23;20420;-45
2021/04/16 01:11:40;;;;;;;15.37;14.67;;;24.20;90.00;;;;;;6103288;23;20428;-43
2021/04/16 01:16:21;;;;;;;16.27;15.27;;;24.20;89.90;;;;;;6103831;23;20436;-46
2021/04/16 01:18:50;;;;;;;16.53;15.70;;;24.20;89.90;;;;;;6102532;23;20429;-44
2021/04/16 01:22:01;;;;;;;16.63;15.63;;;24.20;89.90;;;;;;6101719;23;20456;-45
2021/04/16 01:27:35;;;;;;;16.37;15.57;;;24.20;89.90;;;;;;6102315;23;20444;-44
2021/04/16 01:30:57;;;;;;;16.13;15.37;;;24.20;89.70;;;;;;6103894;23;20456;-45
2021/04/16 01:34:03;;;;;;;16.30;15.50;;;24.20;89.80;;;;;;6098822;23;20429;-44
2021/04/16 01:36:31;;;;;;;16.17;15.27;;;24.20;89.70;;;;;;6100835;23;20695;-42
2021/04/16 01:39:00;;;;;;;15.20;14.50;;;24.20;89.80;;;;;;6101924;23;20409;-45
2021/04/16 01:42:05;;;;;;;16.03;15.20;;;24.20;89.70;;;;;;6102855;23;20664;-45
2021/04/16 01:45:23;;;;;;;15.90;15.20;;;24.20;89.70;;;;;;6103261;23;20420;-43
2021/04/16 01:49:57;;;;;;;15.57;14.87;;;24.20;89.70;;;;;;6102967;23;20440;-44
2021/04/16 01:53:04;;;;;;;16.50;15.53;;;24.20;89.50;;;;;;6103614;23;20425;-45
2021/04/16 01:55:31;;;;;;;15.83;15.03;;;24.20;89.50;;;;;;6103647;23;20488;-43
2021/04/16 02:00:12;;;;;;;15.73;14.93;;;24.20;89.50;;;;;;6103764;23;20442;-44
2021/04/16 02:03:20;;;;;;;16.00;15.13;;;24.30;89.60;;;;;;6103384;23;20846;-46
2021/04/16 02:08:12;;;;;;;15.30;14.60;;;24.30;89.60;;;;;;6102782;23;20441;-46
2021/04/16 02:11:18;;;;;;;15.60;14.80;;;24.20;89.40;;;;;;6102743;23;20423;-44
2021/04/16 02:14:24;;;;;;;16.23;15.33;;;24.20;89.40;;;;;;6101465;23;20430;-45
2021/04/16 02:19:02;;;;;;;16.10;15.40;;;24.20;89.40;;;;;;6102849;23;20433;-45
2021/04/16 02:23:59;;;;;;;15.43;14.77;;;24.30;89.50;;;;;;6103186;23;20647;-45
2021/04/16 02:27:06;;;;;;;16.53;15.53;;;24.20;89.30;;;;;;6102125;23;20432;-43
2021/04/16 02:30:17;;;;;;;15.30;14.50;;;24.30;89.50;;;;;;6100920;23;20461;-44
2021/04/16 02:33:24;;;;;;;16.60;15.57;;;24.30;89.50;;;;;;6101200;23;20429;-43
2021/04/16 02:36:28;;;;;;;16.30;15.60;;;24.30;89.50;;;;;;6101137;23;20437;-44
2021/04/16 02:38:55;;;;;;;16.30;15.50;;;24.20;89.40;;;;;;6099967;23;20448;-43
2021/04/16 02:43:49;;;;;;;16.00;15.20;;;24.20;89.40;;;;;;6098297;23;20820;-43
2021/04/16 02:46:56;;;;;;;15.90;15.00;;;24.20;89.30;;;;;;6098558;23;20448;-44
2021/04/16 02:50:01;;;;;;;17.03;16.13;;;24.20;89.30;;;;;;6101204;23;20421;-43
2021/04/16 02:54:40;;;;;;;16.60;15.63;;;24.20;89.30;;;;;;6101144;23;20664;-43
2021/04/16 02:57:46;;;;;;;15.77;15.03;;;24.30;89.40;;;;;;6084280;23;20859;-45
2021/04/16 03:02:04;;;;;;;16.33;15.53;;;24.30;89.40;;;;;;6101125;23;20439;-43
2021/04/16 03:07:35;;;;;;;16.40;15.60;;;24.30;89.30;;;;;;6102311;23;20630;-43
2021/04/16 03:12:29;;;;;;;16.00;15.30;;;24.30;89.20;;;;;;6102551;23;20440;-44
2021/04/16 03:14:55;;;;;;;15.53;14.93;;;24.30;89.20;;;;;;6098714;23;20705;-42
2021/04/16 03:19:33;;;;;;;16.53;15.83;;;24.30;89.30;;;;;;6100834;23;20998;-44
2021/04/16 03:22:38;;;;;;;16.70;15.90;;;24.30;89.20;;;;;;6100347;23;20504;-44
2021/04/16 03:27:12;;;;;;;16.83;16.03;;;24.30;89.20;;;;;;6100185;23;20780;-42
2021/04/16 03:31:47;;;;;;;16.97;15.97;;;24.30;90.00;;;;;;6099776;23;21045;-43
2021/04/16 03:34:55;;;;;;;16.47;15.70;;;24.30;89.20;;;;;;6102033;23;20427;-47
2021/04/16 03:37:22;;;;;;;16.63;15.90;;;24.30;89.20;;;;;;6101562;23;20445;-44
2021/04/16 03:41:59;;;;;;;17.00;16.10;;;24.30;89.20;;;;;;6103357;23;20464;-46
2021/04/16 03:45:04;;;;;;;16.77;15.90;;;24.30;89.10;;;;;;6102098;23;20513;-44
2021/04/16 03:48:10;;;;;;;17.20;16.20;;;24.30;89.10;;;;;;6103918;23;21039;-44
2021/04/16 03:51:16;;;;;;;16.90;16.00;;;24.30;89.10;;;;;;6083660;23;20465;-43
2021/04/16 03:54:21;;;;;;;17.00;16.00;;;24.30;89.00;;;;;;6096518;23;20824;-46
2021/04/16 03:57:28;;;;;;;16.60;15.90;;;24.40;89.00;;;;;;6097720;23;20706;-45
2021/04/16 04:00:38;;;;;;;16.83;16.03;;;24.40;89.00;;;;;;6099257;23;20449;-45
2021/04/16 04:05:33;;;;;;;16.77;15.90;;;24.40;88.90;;;;;;6098716;23;20443;-44
2021/04/16 04:08:37;;;;;;;17.70;16.90;;;24.40;88.80;;;;;;6096474;23;20534;-45
2021/04/16 04:13:15;;;;;;;17.40;16.70;;;24.50;88.80;;;;;;6098857;23;20470;-43
2021/04/16 04:16:19;;;;;;;17.03;16.23;;;24.50;88.70;;;;;;6099059;23;20431;-43
2021/04/16 04:18:46;;;;;;;18.70;17.80;;;24.50;88.70;;;;;;6072364;23;20446;-45
2021/04/16 04:23:43;;;;;;;17.47;16.57;;;24.50;88.60;;;;;;6098899;23;20439;-43
2021/04/16 04:28:36;;;;;;;17.50;16.70;;;24.60;88.60;;;;;;6096398;23;20764;-45
2021/04/16 04:31:47;;;;;;;17.33;16.60;;;24.60;88.50;;;;;;6095662;23;20752;-45
2021/04/16 04:36:24;;;;;;;17.10;16.30;;;24.60;88.40;;;;;;6096879;23;20516;-45
2021/04/16 04:39:31;;;;;;;17.20;16.30;;;24.60;88.30;;;;;;6062803;23;20444;-44
2021/04/16 04:44:09;;;;;;;17.90;17.10;;;24.60;88.40;;;;;;6066777;23;20464;-43
2021/04/16 04:48:48;;;;;;;16.47;15.77;;;24.70;88.40;;;;;;6068151;23;20605;-43
2021/04/16 04:52:09;;;;;;;16.33;15.63;;;24.70;88.30;;;;;;6066425;23;20438;-43
2021/04/16 04:55:21;;;;;;;17.30;16.60;;;24.70;88.30;;;;;;6067679;23;20478;-43
2021/04/16 04:58:25;;;;;;;17.23;16.50;;;24.70;88.20;;;;;;6065862;23;20429;-44
2021/04/16 05:03:03;;;;;;;16.87;16.07;;;24.80;88.20;;;;;;6066546;23;20458;-44
2021/04/16 05:07:40;;;;;;;16.23;15.60;;;24.80;88.10;;;;;;6066772;23;20459;-42
2021/04/16 05:10:48;;;;;;;17.20;16.50;;;24.80;88.00;;;;;;6063869;23;20436;-44
2021/04/16 05:13:52;;;;;;;17.37;16.50;;;24.80;88.00;;;;;;6064260;23;20431;-43
2021/04/16 05:18:30;;;;;;;16.47;15.77;;;24.80;88.00;;;;;;6063664;23;20454;-43
2021/04/16 05:20:56;;;;;;;17.17;16.30;;;24.80;87.90;;;;;;6063441;23;20463;-46
2021/04/16 05:25:35;;;;;;;17.03;16.33;;;24.80;87.80;;;;;;6056435;23;20661;-46
2021/04/16 05:29:54;;;;;;;15.33;14.73;;;24.80;87.70;;;;;;6052797;23;20516;-44
2021/04/16 05:34:32;;;;;;;16.70;16.00;;;24.80;87.70;;;;;;6055520;23;20475;-47
2021/04/16 05:39:10;;;;;;;17.17;16.00;;;24.90;87.70;;;;;;6055030;23;20458;-45
2021/04/16 05:43:51;;;;;;;16.83;16.00;;;24.90;87.60;;;;;;6056338;23;20508;-44
2021/04/16 05:48:07;;;;;;;16.20;15.53;;;24.90;87.50;;;;;;6057105;23;20443;-44
2021/04/16 05:51:11;;;;;;;17.07;16.27;;;24.90;87.50;;;;;;6051496;23;20448;-44
2021/04/16 05:55:48;;;;;;;16.33;15.57;;;24.90;87.50;;;;;;6050716;23;20631;-44
2021/04/16 06:00:41;;;;;;;17.97;16.70;;;24.90;87.50;;;;;;6048352;23;20733;-43
2021/04/16 06:03:49;;;;;;;16.00;15.10;;;24.90;87.50;;;;;;6046302;23;20640;-43
2021/04/16 06:08:26;;;;;;;16.43;15.63;;;24.90;88.20;;;;;;6043466;23;20468;-42
2021/04/16 06:12:43;;;;;;;15.77;14.97;;;24.90;87.50;;;;;;6045517;23;20813;-44
2021/04/16 06:15:14;;;;;;;16.07;15.37;;;24.90;87.60;;;;;;6043247;23;20860;-43
2021/04/16 06:18:19;;;;;;;16.63;15.63;;;24.90;87.70;;;;;;6045036;23;20424;-44
2021/04/16 06:23:17;;;;;;;16.30;15.40;;;24.90;87.70;;;;;;6045111;23;20660;-44
2021/04/16 06:27:51;;;;;;;16.90;15.83;;;24.90;87.60;;;;;;6039901;23;20477;-45
2021/04/16 06:30:55;;;;;;;16.10;15.30;;;24.90;87.60;;;;;;6036302;23;20614;-43
2021/04/16 06:33:25;;;;;;;16.67;15.77;;;24.90;87.60;;;;;;6041222;23;20734;-46
2021/04/16 06:35:55;;;;;;;16.67;15.57;;;24.90;87.60;;;;;;6038418;23;20565;-43
2021/04/16 06:38:25;;;;;;;15.80;15.10;;;24.90;87.60;;;;;;6060370;23;20477;-42
2021/04/16 06:41:04;;;;;;;17.63;16.53;;;24.90;87.60;;;;;;6067147;23;20679;-43
2021/04/16 06:43:41;;;;;;;17.60;16.23;;;24.90;87.60;;;;;;6069091;23;20688;-42
2021/04/16 06:46:13;;;;;;;16.00;15.20;;;25.00;87.70;;;;;;6067255;23;20493;-42
2021/04/16 06:48:40;;;;;;;16.03;15.20;;;25.00;87.60;;;;;;6071199;23;20460;-43
2021/04/16 06:51:07;;;;;;;17.13;16.07;;;24.90;87.50;;;;;;6070048;23;20912;-43
2021/04/16 06:53:47;;;;;;;16.47;15.43;;;25.00;88.40;;;;;;6071727;23;21005;-43
2021/04/16 06:56:18;;;;;;;16.87;15.87;;;25.00;87.70;;;;;;6069955;23;20441;-41
2021/04/16 06:58:51;;;;;;;15.63;14.93;;;24.90;87.50;;;;;;6069215;23;20466;-42
2021/04/16 07:01:26;;;;;;;15.47;14.77;;;24.90;87.50;;;;;;6068949;23;20771;-42
2021/04/16 07:04:16;;;;;;;16.43;15.43;;;24.90;87.60;;;;;;6068619;23;20600;-42
2021/04/16 07:06:43;;;;;;;15.63;14.80;;;24.90;87.50;;;;;;6065982;23;20467;-43
2021/04/16 07:09:13;;;;;;;15.27;14.57;;;24.90;87.50;;;;;;6068651;23;20683;-43
2021/04/16 07:11:42;;;;;;;15.10;14.30;;;24.90;87.50;;;;;;6069020;23;20825;-42
2021/04/16 07:14:14;;;;;;;14.50;13.90;;;24.90;87.50;;;;;;6071531;23;20641;-42
2021/04/16 07:16:40;;;;;;;15.40;14.60;;;24.90;87.50;;;;;;6067779;23;20775;-42
2021/04/16 07:19:14;;;;;;;15.40;14.53;;;24.90;87.60;;;;;;6066832;23;20657;-43
2021/04/16 07:21:41;;;;;;;14.93;14.23;;;24.90;87.60;;;;;;6065819;23;20463;-43
2021/04/16 07:24:08;;;;;;;15.80;15.00;;;24.90;87.60;;;;;;6063722;23;20466;-43
2021/04/16 07:26:41;;;;;;;15.90;15.00;;;24.90;87.60;;;;;;6065432;23;20448;-42
2021/04/16 07:29:10;;;;;;;15.17;14.57;;;24.90;87.70;;;;;;6062380;23;20461;-43
2021/04/16 07:31:49;;;;;;;16.30;15.50;;;24.80;87.60;;;;;;6063602;23;20916;-46
2021/04/16 07:34:33;;;;;;;16.00;15.10;;;24.90;87.70;;;;;;6064609;23;20461;-46
2021/04/16 07:37:13;;;;;;;16.57;15.57;;;24.80;87.60;;;;;;6064626;23;20917;-45
2021/04/16 07:39:46;;;;;;;16.30;15.60;;;24.80;87.60;;;;;;6066341;23;20611;-46
2021/04/16 07:42:31;;;;;;;15.13;14.43;;;24.90;87.70;;;;;;6065192;23;20483;-46
2021/04/16 07:45:04;;;;;;;15.87;14.87;;;24.80;87.60;;;;;;6064594;23;20550;-46
2021/04/16 07:47:32;;;;;;;15.70;14.90;;;24.80;87.60;;;;;;6071317;23;20842;-46
2021/04/16 07:50:02;;;;;;;16.63;15.60;;;24.80;87.70;;;;;;6038915;23;20768;-45
2021/04/16 07:52:33;;;;;;;16.53;15.60;;;24.80;87.80;;;;;;6061084;23;20551;-47
2021/04/16 07:55:18;;;;;;;15.50;14.90;;;24.80;87.90;;;;;;6066502;23;20571;-46
2021/04/16 07:58:07;;;;;;;16.33;15.43;;;24.80;88.00;;;;;;6070741;23;20440;-45
2021/04/16 08:00:37;;;;;;;17.43;16.30;;;24.80;88.00;;;;;;6071056;23;20713;-46
2021/04/16 08:03:24;;;;;;;16.70;15.70;;;24.80;88.00;;;;;;6070442;23;20455;-46
2021/04/16 08:05:53;;;;;;;16.53;15.63;;;24.80;88.10;;;;;;6076505;23;20555;-47
2021/04/16 08:08:25;;;;;;;16.20;15.30;;;24.80;88.10;;;;;;6063719;23;20703;-45
2021/04/16 08:11:13;;;;;;;15.87;14.97;;;24.80;88.10;;;;;;6069762;23;21419;-45
2021/04/16 08:13:55;;;;;;;16.40;15.30;;;24.80;88.10;;;;;;6075307;23;20525;-45
2021/04/16 08:16:28;;;;;;;16.00;15.20;;;24.80;88.20;;;;;;6069456;23;20516;-45
2021/04/16 08:19:28;;;;;;;16.50;15.40;;;24.70;88.10;;;;;;6048548;23;20459;-45
2021/04/16 08:21:58;;;;;;;16.70;15.07;;;24.70;88.10;;;;;;6072161;23;21188;-45
2021/04/16 08:24:52;;;;;;;16.77;15.70;;;24.70;88.10;;;;;;6047774;23;20806;-45
2021/04/16 08:27:28;;;;;;;16.40;15.50;;;24.70;88.20;;;;;;6074531;23;20479;-47
2021/04/16 08:30:05;;;;;;;16.57;15.40;;;24.70;88.20;;;;;;6076531;23;20755;-46
2021/04/16 08:32:38;;;;;;;17.03;15.70;;;24.70;88.20;;;;;;6073183;23;20475;-46
2021/04/16 08:35:13;;;;;;;16.43;15.50;;;24.70;88.20;;;;;;6077111;23;20450;-46
2021/04/16 08:37:46;;;;;;;16.00;15.20;;;24.70;88.20;;;;;;6049979;23;21165;-46
2021/04/16 08:40:19;;;;;;;16.27;15.27;;;24.80;88.40;;;;;;6071738;23;20451;-46
2021/04/16 08:42:47;;;;;;;15.43;14.60;;;24.70;88.20;;;;;;6071238;23;20463;-47
2021/04/16 08:45:17;;;;;;;16.10;15.13;;;24.70;88.20;;;;;;6071871;23;20445;-46
2021/04/16 08:47:53;;;;;;;16.13;15.00;;;24.80;88.40;;;;;;6075617;23;20438;-44
2021/04/16 08:50:23;;;;;;;16.00;15.00;;;24.70;88.40;;;;;;6071262;23;20873;-47
2021/04/16 08:52:53;;;;;;;16.83;15.70;;;24.70;88.50;;;;;;6074171;23;20554;-47
2021/04/16 08:55:30;;;;;;;16.47;15.10;;;24.70;88.70;;;;;;6053288;23;20772;-43
2021/04/16 08:58:00;;;;;;;15.43;14.60;;;24.70;88.70;;;;;;6064256;23;20700;-43
2021/04/16 09:00:34;;;;;;;15.03;14.20;;;24.70;88.70;;;;;;6067454;23;20454;-42
2021/04/16 09:03:04;;;;;;;15.97;14.80;;;24.80;89.10;;;;;;6068761;23;20465;-45
2021/04/16 09:05:33;;;;;;;16.23;15.27;;;24.70;89.20;;;;;;6045803;23;20456;-44
2021/04/16 09:08:18;;;;;;;16.20;15.10;;;24.70;89.30;;;;;;6073101;23;20448;-45
2021/04/16 09:10:47;;;;;;;16.10;15.20;;;24.70;89.30;;;;;;6077532;23;20869;-45
2021/04/16 09:13:55;;;;;;;16.23;15.33;;;24.70;89.10;;;;;;6071506;23;20445;-45
2021/04/16 09:16:44;;;;;;;16.60;15.30;;;24.70;89.00;;;;;;6074783;23;20451;-45
2021/04/16 09:19:40;;;;;;;16.40;15.40;;;24.70;88.80;;;;;;6076990;23;20468;-45
2021/04/16 09:22:48;;;;;;;15.77;14.87;;;24.80;88.90;;;;;;6049801;23;21244;-45
2021/04/16 09:25:40;;;;;;;16.30;14.93;;;24.70;88.70;;;;;;6073283;23;20447;-45
2021/04/16 09:28:33;;;;;;;15.67;14.73;;;24.70;88.70;;;;;;6075914;23;20535;-45
2021/04/16 09:31:03;;;;;;;17.33;16.13;;;24.80;88.80;;;;;;6072569;23;20461;-45
2021/04/16 09:33:45;;;;;;;15.63;14.63;;;24.70;88.60;;;;;;6074604;23;20514;-44
2021/04/16 09:36:32;;;;;;;16.70;15.60;;;24.70;88.80;;;;;;6073366;23;21094;-45
2021/04/16 09:39:12;;;;;;;16.00;14.97;;;24.70;88.60;;;;;;6075954;23;20784;-45
2021/04/16 09:41:41;;;;;;;15.83;14.73;;;24.70;88.70;;;;;;6070654;23;20449;-45
2021/04/16 09:44:34;;;;;;;16.23;15.03;;;24.70;88.60;;;;;;6069347;23;20475;-45
2021/04/16 09:47:03;;;;;;;16.33;15.03;;;24.70;88.80;;;;;;6067392;23;20461;-43
2021/04/16 09:49:39;;;;;;;15.33;14.53;;;24.70;88.70;;;;;;6068917;23;20644;-45
2021/04/16 09:52:45;;;;;;;17.47;16.10;;;24.70;88.80;;;;;;6064942;23;20587;-44
2021/04/16 09:56:08;;;;;;;16.07;14.57;;;24.70;89.00;;;;;;5948176;24;20810;-44
2021/04/16 09:59:29;;;;;;;16.07;14.80;;;24.60;88.90;;;;;;6063353;23;20491;-45
2021/04/16 10:02:36;;;;;;;16.73;15.43;;;24.60;89.00;;;;;;6055384;23;20738;-45
2021/04/16 10:05:25;;;;;;;15.80;14.80;;;24.70;89.10;;;;;;6063692;23;20468;-45
2021/04/16 10:07:53;;;;;;;16.10;14.80;;;24.70;89.00;;;;;;6022140;23;20857;-46
2021/04/16 10:10:28;;;;;;;15.80;14.70;;;24.60;89.00;;;;;;6066313;23;20572;-44
2021/04/16 10:13:03;;;;;;;16.93;15.87;;;24.60;88.90;;;;;;6065122;23;20730;-45
2021/04/16 10:15:36;;;;;;;15.53;14.63;;;24.70;89.00;;;;;;6067163;23;20985;-45
2021/04/16 10:18:12;;;;;;;16.57;15.33;;;24.70;88.90;;;;;;6065749;23;20644;-45
2021/04/16 10:20:54;;;;;;;16.20;14.80;;;24.70;88.90;;;;;;6064733;23;20480;-45
2021/04/16 10:23:24;;;;;;;15.83;14.73;;;24.70;88.90;;;;;;6068267;23;20449;-45
2021/04/16 12:39:06;;;;;;;16.23;14.77;;;24.40;90.20;;;;;;6054752;23;20429;-44
2021/04/16 12:43:41;;;;;;;16.30;15.03;;;24.40;90.20;;;;;;6055182;23;20733;-45
2021/04/16 12:47:58;;;;;;;16.80;15.50;;;24.40;90.20;;;;;;6054581;23;21076;-44
2021/04/16 12:50:27;;;;;;;15.47;14.43;;;24.40;90.30;;;;;;6051991;23;20713;-45
2021/04/16 12:53:34;;;;;;;15.30;14.30;;;24.40;90.30;;;;;;6038962;23;20434;-43
2021/04/16 12:56:41;;;;;;;15.10;14.13;;;24.40;90.30;;;;;;6056000;23;20569;-44
2021/04/16 12:59:11;;;;;;;15.17;14.13;;;24.40;90.30;;;;;;6056212;23;20440;-46
2021/04/16 13:02:21;;;;;;;17.13;15.90;;;24.40;90.40;;;;;;6059975;23;20483;-44
2021/04/16 13:06:32;;;;;;;16.37;15.30;;;24.40;90.30;;;;;;6061053;23;20859;-45
2021/04/16 13:09:00;;;;;;;15.77;14.50;;;24.40;90.30;;;;;;6060516;23;20429;-44
2021/04/16 13:12:38;;;;;;;15.10;13.90;;;24.40;90.40;;;;;;6059670;23;20460;-45
2021/04/16 13:15:45;;;;;;;14.97;14.20;;;24.30;90.30;;;;;;6056553;23;20429;-44
2021/04/16 13:19:46;;;;;;;15.57;14.60;;;24.40;90.40;;;;;;6060467;23;20441;-45
2021/04/16 13:24:21;;;;;;;16.13;14.93;;;24.40;90.40;;;;;;6059671;23;20928;-44
2021/04/16 13:28:57;;;;;;;16.47;15.23;;;24.40;90.40;;;;;;6059424;23;20453;-44
2021/04/16 13:32:09;;;;;;;16.77;15.37;;;24.30;90.40;;;;;;6062515;23;20444;-44
2021/04/16 13:36:31;;;;;;;16.20;15.20;;;24.30;90.50;;;;;;6082803;23;20593;-43
2021/04/16 13:39:39;;;;;;;15.87;14.87;;;24.30;90.50;;;;;;6092110;23;20682;-45
2021/04/16 13:42:44;;;;;;;15.30;14.50;;;24.30;90.60;;;;;;6092337;23;20504;-45
2021/04/16 13:45:13;;;;;;;15.17;14.17;;;24.20;90.50;;;;;;6064230;23;20780;-44
2021/04/16 13:49:55;;;;;;;15.67;14.40;;;24.20;90.60;;;;;;6085857;23;20637;-43
2021/04/16 13:54:29;;;;;;;15.53;14.23;;;24.20;90.60;;;;;;6086129;23;20592;-43
2021/04/16 13:59:06;;;;;;;16.83;15.63;;;24.20;90.60;;;;;;6087623;23;20630;-44
2021/04/16 14:03:41;;;;;;;16.47;15.10;;;24.20;90.60;;;;;;6085101;23;20567;-43
2021/04/16 14:06:11;;;;;;;15.07;14.13;;;24.20;90.60;;;;;;6085332;23;20433;-44
2021/04/16 14:08:41;;;;;;;15.60;14.50;;;24.20;90.60;;;;;;6086002;23;20447;-44
2021/04/16 14:11:08;;;;;;;15.37;14.37;;;24.20;90.70;;;;;;6085764;23;20545;-43
2021/04/16 14:13:35;;;;;;;16.37;15.27;;;24.20;90.70;;;;;;6086425;23;20487;-44
2021/04/16 14:16:05;;;;;;;15.20;14.40;;;24.20;90.80;;;;;;6087875;23;20674;-43
2021/04/16 14:18:36;;;;;;;16.47;15.37;;;24.20;90.80;;;;;;6090248;23;20548;-43
2021/04/16 14:21:03;;;;;;;15.47;14.57;;;24.20;90.80;;;;;;6088995;23;20575;-45
2021/04/16 14:23:30;;;;;;;16.10;14.93;;;24.20;90.80;;;;;;6087683;23;20439;-43
2021/04/16 14:25:57;;;;;;;15.47;14.47;;;24.20;90.70;;;;;;6089365;23;20667;-43
2021/04/16 14:28:24;;;;;;;16.13;15.20;;;24.20;90.80;;;;;;6090351;23;20444;-44
2021/04/16 14:30:54;;;;;;;15.67;14.40;;;24.10;90.70;;;;;;6092679;23;20445;-45
2021/04/16 14:33:25;;;;;;;16.77;15.57;;;24.20;90.80;;;;;;6093842;23;20517;-44
2021/04/16 14:35:55;;;;;;;16.40;15.30;;;24.20;90.90;;;;;;6092620;23;21066;-44
2021/04/16 14:38:24;;;;;;;15.43;14.53;;;24.20;90.70;;;;;;6093344;23;20492;-44
2021/04/16 14:40:50;;;;;;;15.53;14.63;;;24.20;90.70;;;;;;6093859;23;21013;-44
2021/04/16 14:43:18;;;;;;;15.50;14.70;;;24.20;90.70;;;;;;6095281;23;20457;-45
2021/04/16 14:45:48;;;;;;;15.90;14.80;;;24.20;90.70;;;;;;6093355;23;20564;-45
2021/04/16 14:48:16;;;;;;;16.30;15.00;;;24.20;90.70;;;;;;6092128;23;20455;-44
2021/04/16 14:50:43;;;;;;;14.70;13.63;;;24.20;90.70;;;;;;6066450;23;20457;-44
2021/04/16 14:53:14;;;;;;;15.03;14.17;;;24.20;90.70;;;;;;6091947;23;20445;-44
2021/04/16 14:55:41;;;;;;;14.57;13.70;;;24.20;90.60;;;;;;6091615;23;20476;-43
2021/04/16 14:58:09;;;;;;;16.03;15.03;;;24.30;90.70;;;;;;6092472;23;20850;-44
2021/04/16 15:00:37;;;;;;;15.27;14.37;;;24.30;90.60;;;;;;6089842;23;20504;-44
2021/04/16 15:03:04;;;;;;;15.90;15.00;;;24.30;90.60;;;;;;6088533;23;20478;-44
2021/04/16 15:05:31;;;;;;;17.00;15.80;;;24.30;90.50;;;;;;6087938;23;20572;-45
2021/04/16 15:08:02;;;;;;;16.10;15.00;;;24.30;90.50;;;;;;6093750;23;20457;-44
2021/04/16 15:10:38;;;;;;;15.50;14.60;;;24.30;90.50;;;;;;6092072;23;20465;-43
2021/04/16 15:13:07;;;;;;;14.87;13.90;;;24.30;90.50;;;;;;6093352;23;20984;-44
2021/04/16 15:15:36;;;;;;;14.83;13.83;;;24.30;90.50;;;;;;6094592;23;20456;-44
2021/04/16 15:18:03;;;;;;;14.73;13.83;;;24.30;90.70;;;;;;6094090;23;20453;-44
2021/04/16 15:20:31;;;;;;;14.27;13.47;;;24.30;90.50;;;;;;6094946;23;20465;-44
2021/04/16 15:23:01;;;;;;;16.07;14.97;;;24.30;90.50;;;;;;6091927;23;20461;-44
2021/04/16 15:25:28;;;;;;;15.03;14.23;;;24.30;90.40;;;;;;6093554;23;20450;-43
2021/04/16 15:27:57;;;;;;;14.70;13.70;;;24.40;90.40;;;;;;6095463;23;20550;-44
2021/04/16 15:30:28;;;;;;;14.50;13.70;;;24.40;90.40;;;;;;6094068;23;20829;-44
2021/04/16 15:32:55;;;;;;;15.23;13.87;;;24.40;90.40;;;;;;6091469;23;21053;-44
2021/04/16 15:46:36;;;;;;;14.30;13.40;;;24.50;90.30;;;;;;6096524;23;20445;-44
2021/04/16 15:49:04;;;;;;;15.13;14.23;;;24.40;90.30;;;;;;6096926;23;20525;-43
2021/04/16 15:51:32;;;;;;;14.70;13.80;;;24.40;90.30;;;;;;6096375;23;20515;-44
2021/04/16 15:54:00;;;;;;;14.63;13.83;;;24.40;90.30;;;;;;6097105;23;20562;-45
2021/04/16 15:56:30;;;;;;;15.70;14.80;;;24.40;90.30;;;;;;6097397;23;20449;-43
2021/04/16 15:58:59;;;;;;;15.20;14.07;;;24.40;90.30;;;;;;6070617;23;20892;-44
2021/04/16 16:01:27;;;;;;;15.47;14.47;;;24.40;90.30;;;;;;6095303;23;20668;-44
2021/04/16 16:03:54;;;;;;;14.40;13.70;;;24.40;90.30;;;;;;6096358;23;20450;-45
2021/04/16 16:06:21;;;;;;;14.30;13.40;;;24.40;90.30;;;;;;6096002;23;20497;-44
2021/04/16 16:08:54;;;;;;;14.60;13.80;;;24.40;90.30;;;;;;6096683;23;20463;-43
2021/04/16 16:11:22;;;;;;;15.27;14.30;;;24.50;90.30;;;;;;6095599;23;20445;-44
2021/04/16 16:13:49;;;;;;;15.13;14.13;;;24.50;90.30;;;;;;6097379;23;20440;-43
2021/04/16 16:16:19;;;;;;;15.10;14.10;;;24.50;90.30;;;;;;6097102;23;20503;-44
2021/04/16 16:18:48;;;;;;;15.50;14.50;;;24.50;90.30;;;;;;6097334;23;20799;-43
2021/04/16 16:21:16;;;;;;;15.33;14.33;;;24.60;90.30;;;;;;6095751;23;20447;-45
2021/04/16 16:23:45;;;;;;;16.73;15.43;;;24.60;90.40;;;;;;6096104;23;20451;-43
2021/04/16 16:26:16;;;;;;;14.97;14.17;;;24.60;90.40;;;;;;6070781;23;20564;-45
2021/04/16 16:28:44;;;;;;;15.07;14.13;;;24.70;90.50;;;;;;6095770;23;20462;-44
2021/04/16 16:31:11;;;;;;;15.50;14.50;;;24.60;90.40;;;;;;6097126;23;20467;-44
2021/04/16 16:33:38;;;;;;;14.83;13.80;;;24.70;90.50;;;;;;6097364;23;20456;-44
2021/04/16 16:36:05;;;;;;;15.87;14.80;;;24.60;90.50;;;;;;6097385;23;20463;-45
2021/04/16 16:38:32;;;;;;;15.83;14.40;;;24.60;90.50;;;;;;6098974;23;20452;-45
2021/04/16 16:41:00;;;;;;;15.80;14.70;;;24.70;90.50;;;;;;6098029;23;20455;-45
2021/04/16 16:43:29;;;;;;;15.80;14.80;;;24.70;90.80;;;;;;6098727;23;20447;-44
2021/04/16 16:46:01;;;;;;;14.80;13.90;;;24.70;90.40;;;;;;6096486;23;20459;-43
2021/04/16 16:48:27;;;;;;;15.10;14.40;;;24.70;90.40;;;;;;6072670;23;20495;-45
2021/04/16 16:50:55;;;;;;;14.93;14.10;;;24.70;90.40;;;;;;6097528;23;20578;-43
2021/04/16 16:53:59;;;;;;;14.37;13.67;;;24.70;90.40;;;;;;6098533;23;21115;-44
2021/04/16 16:58:37;;;;;;;15.67;14.30;;;24.70;90.40;;;;;;6097485;23;20464;-44
2021/04/16 17:03:12;;;;;;;14.63;13.60;;;24.70;90.40;;;;;;6098376;23;20476;-45
2021/04/16 17:06:17;;;;;;;15.20;14.20;;;24.70;90.40;;;;;;6095200;23;20839;-44
2021/04/16 17:10:32;;;;;;;15.37;14.00;;;24.60;90.40;;;;;;6096286;23;20433;-44
2021/04/16 17:13:37;;;;;;;14.57;13.77;;;24.60;90.50;;;;;;6097513;23;20519;-44
2021/04/16 17:19:05;;;;;;;15.03;14.23;;;24.60;90.50;;;;;;6096401;23;20782;-43
2021/04/16 17:21:32;;;;;;;14.80;14.00;;;24.60;90.50;;;;;;6095442;23;20437;-43
2021/04/16 17:23:59;;;;;;;14.47;13.67;;;24.60;90.50;;;;;;6095196;23;20868;-44
2021/04/16 17:27:07;;;;;;;13.90;13.20;;;24.60;90.60;;;;;;6095116;23;20873;-43
2021/04/16 17:29:36;;;;;;;14.90;14.00;;;24.60;90.50;;;;;;6094347;23;20819;-44
2021/04/16 17:34:15;;;;;;;13.90;13.20;;;24.50;90.50;;;;;;6095574;23;20804;-44
2021/04/16 17:36:43;;;;;;;14.10;13.27;;;24.50;90.50;;;;;;6096242;23;20742;-45
2021/04/16 17:39:11;;;;;;;13.93;13.30;;;24.50;90.60;;;;;;6094831;23;20791;-44
2021/04/16 17:41:42;;;;;;;14.20;13.50;;;24.50;90.60;;;;;;6094550;23;20519;-44
2021/04/16 17:44:47;;;;;;;14.17;13.23;;;24.50;90.60;;;;;;6097955;23;20421;-44
2021/04/16 17:47:51;;;;;;;13.80;13.13;;;24.50;90.60;;;;;;6097518;23;20448;-42
2021/04/16 17:51:04;;;;;;;13.70;12.90;;;24.50;90.60;;;;;;6098472;23;20451;-43
2021/04/16 17:53:30;;;;;;;14.20;13.40;;;24.50;90.60;;;;;;6098771;23;20448;-43
2021/04/16 17:56:35;;;;;;;13.20;12.50;;;24.50;90.60;;;;;;6098891;23;20435;-42
2021/04/16 17:59:05;;;;;;;13.17;12.53;;;24.50;90.60;;;;;;6097874;23;20433;-43
2021/04/16 18:02:09;;;;;;;13.20;12.57;;;24.50;90.60;;;;;;6099496;23;20481;-44
2021/04/16 18:05:14;;;;;;;13.63;12.90;;;24.50;90.50;;;;;;6095786;23;20429;-42
2021/04/16 18:07:50;;;;;;;14.33;13.57;;;24.60;90.50;;;;;;6070662;23;20433;-42